Time;durP1;ratioP1;P1;durP2;ratioP2;P2;SDS_P1;SDS_P2;PMS_P1;PMS_P2;Temp;Humidity;BMP_temperature;BMP_pressure;BME280_temperature;BME280_humidity;BME280_pressure;Samples;Min_cycle;Max_cycle;Signal;HPM_P1;HPM_P2
2021/03/02 00:01:40;;;;;;;54.40;21.85;;;;;;;1.50;100.00;103199.78;4976980;28;20042;-63
2021/03/02 00:04:07;;;;;;;51.25;20.55;;;;;;;1.39;100.00;103206.09;4985551;23;20062;-63
2021/03/02 00:06:35;;;;;;;58.25;21.27;;;;;;;1.42;100.00;103204.31;5021491;28;20041;-62
2021/03/02 00:09:01;;;;;;;52.72;21.02;;;;;;;1.43;100.00;103204.28;5018142;28;20088;-63
2021/03/02 00:11:27;;;;;;;50.88;20.42;;;;;;;1.36;100.00;103208.78;5017941;28;20075;-62
2021/03/02 00:13:53;;;;;;;54.60;21.90;;;;;;;1.27;100.00;103200.94;5017257;28;20057;-62
2021/03/02 00:16:24;;;;;;;61.58;23.65;;;;;;;1.25;100.00;103201.84;5016289;28;20400;-62
2021/03/02 00:18:55;;;;;;;59.85;23.02;;;;;;;1.21;100.00;103201.88;5017353;28;20038;-63
2021/03/02 00:21:25;;;;;;;53.72;20.95;;;;;;;1.25;100.00;103196.53;5009392;28;20064;-63
2021/03/02 00:23:54;;;;;;;52.17;21.38;;;;;;;1.29;100.00;103188.53;5018609;28;20111;-62
2021/03/02 00:26:23;;;;;;;54.13;23.23;;;;;;;1.23;100.00;103189.47;5017618;28;20057;-62
2021/03/02 00:28:50;;;;;;;;;;;;;;;1.26;100.00;103193.88;5017188;28;20049;-62
2021/03/02 00:31:16;;;;;;;59.28;22.30;;;;;;;1.22;100.00;103189.50;5014047;28;20279;-63
2021/03/02 00:33:45;;;;;;;60.72;24.45;;;;;;;1.18;100.00;103188.66;5014240;28;20062;-63
2021/03/02 00:36:11;;;;;;;66.72;24.77;;;;;;;1.26;100.00;103183.25;5017923;28;20049;-62
2021/03/02 00:38:37;;;;;;;65.30;23.95;;;;;;;1.26;100.00;103183.25;5016653;28;20112;-62
2021/03/02 00:41:04;;;;;;;65.95;25.63;;;;;;;1.27;100.00;103186.81;5018837;28;20517;-63
2021/03/02 00:43:30;;;;;;;68.15;24.88;;;;;;;1.29;100.00;103182.34;5016723;28;20610;-62
2021/03/02 00:45:56;;;;;;;70.07;25.38;;;;;;;1.20;100.00;103178.91;5019096;28;20491;-63
2021/03/02 00:48:22;;;;;;;66.32;24.83;;;;;;;1.15;100.00;103179.84;5017620;28;20099;-63
2021/03/02 00:50:48;;;;;;;66.95;24.90;;;;;;;1.23;100.00;103183.31;5018935;28;20104;-62
2021/03/02 00:53:14;;;;;;;67.18;25.08;;;;;;;1.19;100.00;103182.47;5018505;28;20542;-62
2021/03/02 00:55:41;;;;;;;72.90;24.50;;;;;;;1.12;100.00;103183.44;5010179;28;20547;-62
2021/03/02 00:58:07;;;;;;;74.18;25.52;;;;;;;1.10;100.00;103181.69;5018456;28;20042;-62
2021/03/02 01:00:33;;;;;;;63.15;24.90;;;;;;;1.02;100.00;103187.97;5023409;28;20054;-62
2021/03/02 01:02:59;;;;;;;66.30;25.98;;;;;;;1.06;100.00;103175.56;5026379;28;20103;-64
2021/03/02 01:05:48;;;;;;;59.05;23.33;;;;;;;1.02;100.00;103180.00;5033377;23;20076;-62
2021/03/02 01:08:14;;;;;;;66.13;26.15;;;;;;;0.98;100.00;103178.28;5055060;28;20052;-62
2021/03/02 01:10:40;;;;;;;67.40;26.25;;;;;;;0.92;100.00;103182.78;5057734;28;20131;-62
2021/03/02 01:13:06;;;;;;;63.47;24.27;;;;;;;0.96;100.00;103180.06;5055675;28;20147;-62
2021/03/02 01:15:33;;;;;;;62.25;25.15;;;;;;;0.88;100.00;103181.91;5056744;28;20128;-63
2021/03/02 01:17:59;;;;;;;60.42;23.17;;;;;;;0.84;100.00;103180.19;5055662;28;20098;-61
2021/03/02 01:20:25;;;;;;;62.75;24.10;;;;;;;0.72;100.00;103183.84;5054314;28;20127;-62
2021/03/02 01:22:51;;;;;;;56.25;22.95;;;;;;;0.72;100.00;103180.31;5055996;28;20056;-62
2021/03/02 01:25:17;;;;;;;68.63;25.75;;;;;;;0.75;100.00;103180.28;5055398;28;20041;-63
2021/03/02 01:27:43;;;;;;;61.30;23.95;;;;;;;0.69;100.00;103181.22;5055586;28;20056;-63
2021/03/02 01:30:12;;;;;;;70.30;25.85;;;;;;;0.64;100.00;103180.41;5055299;28;20115;-62
2021/03/02 01:32:39;;;;;;;66.45;24.92;;;;;;;0.57;100.00;103187.53;5053671;28;20450;-62
2021/03/02 01:35:07;;;;;;;67.38;24.10;;;;;;;0.59;100.00;103188.41;5052607;28;20049;-62
2021/03/02 01:37:33;;;;;;;63.15;24.45;;;;;;;0.51;100.00;103187.56;5050018;28;20052;-62
2021/03/02 01:39:59;;;;;;;64.78;24.95;;;;;;;0.51;100.00;103184.94;5053730;28;20477;-62
2021/03/02 01:42:25;;;;;;;63.00;24.75;;;;;;;0.53;100.00;103169.91;5056116;28;20423;-62
2021/03/02 01:44:50;;;;;;;58.58;23.85;;;;;;;0.56;100.00;103169.88;5055496;28;20086;-63
2021/03/02 01:47:16;;;;;;;69.20;25.30;;;;;;;0.57;100.00;103160.16;5053253;28;20139;-63
2021/03/02 01:49:43;;;;;;;69.80;26.20;;;;;;;0.52;100.00;103152.25;5055043;28;20049;-62
2021/03/02 01:52:10;;;;;;;70.72;26.55;;;;;;;0.48;100.00;103155.81;5054547;28;20520;-62
2021/03/02 01:54:36;;;;;;;59.50;23.75;;;;;;;0.44;100.00;103151.44;5055068;28;20055;-62
2021/03/02 01:57:03;;;;;;;63.50;24.48;;;;;;;0.46;100.00;103157.63;5052984;28;20057;-61
2021/03/02 02:02:49;;;;;;;66.25;24.60;;;;;;;0.45;100.00;103147.91;4971988;22;20099;-62
2021/03/02 02:05:17;;;;;;;68.00;24.52;;;;;;;0.44;100.00;103149.69;5034725;28;20049;-61
2021/03/02 02:07:48;;;;;;;76.05;26.58;;;;;;;0.47;100.00;103144.34;5034092;28;20056;-62
2021/03/02 02:10:18;;;;;;;66.90;25.48;;;;;;;0.39;100.00;103147.97;5034278;28;20049;-62
2021/03/02 02:12:47;;;;;;;74.20;26.38;;;;;;;0.40;100.00;103141.75;5033169;28;20056;-62
2021/03/02 02:15:19;;;;;;;68.03;25.25;;;;;;;0.35;100.00;103141.78;5035030;28;20057;-62
2021/03/02 02:17:50;;;;;;;76.47;26.73;;;;;;;0.32;100.00;103139.16;5031790;28;20049;-62
2021/03/02 02:20:26;;;;;;;67.43;25.20;;;;;;;0.41;100.00;103143.50;5034561;28;20497;-62
2021/03/02 02:23:05;;;;;;;90.40;28.38;;;;;;;0.42;100.00;103138.19;5034666;28;20840;-62
2021/03/02 02:25:42;;;;;;;70.10;27.20;;;;;;;0.37;100.00;103136.47;5031881;28;20068;-62
2021/03/02 02:28:11;;;;;;;80.00;28.60;;;;;;;0.34;100.00;103143.56;5034131;28;20056;-62
2021/03/02 02:30:39;;;;;;;76.82;28.38;;;;;;;0.41;100.00;103139.09;5034629;28;20049;-62
2021/03/02 02:33:07;;;;;;;83.35;29.60;;;;;;;0.48;100.00;103145.22;5032022;28;20041;-63
2021/03/02 02:35:35;;;;;;;88.22;29.52;;;;;;;0.48;100.00;103145.22;5033783;28;20056;-62
2021/03/02 02:38:04;;;;;;;80.07;27.98;;;;;;;0.43;100.00;103141.75;5035420;28;20096;-62
2021/03/02 02:40:30;;;;;;;;;;;;;;;0.39;100.00;103145.31;5034764;28;20415;-61
2021/03/02 02:42:57;;;;;;;72.35;26.52;;;;;;;0.39;100.00;103137.38;5032418;28;19974;-62
2021/03/02 02:45:25;;;;;;;85.80;28.92;;;;;;;0.36;100.00;103140.03;5034445;28;20056;-62
2021/03/02 02:47:52;;;;;;;77.88;27.77;;;;;;;0.33;100.00;103136.50;5032236;28;20049;-62
2021/03/02 02:50:18;;;;;;;74.88;27.33;;;;;;;0.23;100.00;103137.47;5034076;28;20048;-63
2021/03/02 02:52:46;;;;;;;80.47;27.20;;;;;;;0.22;100.00;103143.69;5034325;28;20054;-62
2021/03/02 02:55:15;;;;;;;77.10;26.20;;;;;;;0.22;100.00;103132.19;5035710;28;20542;-62
2021/03/02 02:57:43;;;;;;;;;;;;;;;0.29;100.00;103129.47;5034936;28;20048;-61
2021/03/02 03:00:11;;;;;;;76.70;27.80;;;;;;;0.32;100.00;103131.22;5037490;28;19935;-62
2021/03/02 03:02:43;;;;;;;81.45;26.98;;;;;;;0.28;100.00;103127.75;5039714;28;20060;-62
2021/03/02 03:05:14;;;;;;;93.65;30.73;;;;;;;0.30;100.00;103123.28;5036008;28;20049;-61
2021/03/02 03:07:46;;;;;;;79.57;28.75;;;;;;;0.29;100.00;103131.25;5037091;28;20045;-61
2021/03/02 03:10:13;;;;;;;89.65;28.23;;;;;;;0.37;100.00;103125.88;5038773;28;20111;-61
2021/03/02 03:12:42;;;;;;;91.47;29.15;;;;;;;0.42;100.00;103132.03;5038689;28;20044;-62
2021/03/02 03:15:10;;;;;;;81.47;29.15;;;;;;;0.37;100.00;103132.09;5038128;28;20065;-62
2021/03/02 03:17:40;;;;;;;82.30;27.77;;;;;;;0.25;100.00;103133.06;5036684;28;20045;-62
2021/03/02 03:20:10;;;;;;;78.53;27.60;;;;;;;0.27;100.00;103136.56;5037298;28;20049;-62
2021/03/02 03:22:37;;;;;;;73.65;27.83;;;;;;;0.30;100.00;103131.25;5037732;28;20044;-62
2021/03/02 03:25:05;;;;;;;87.03;30.38;;;;;;;0.38;100.00;103138.25;5034367;28;20069;-62
2021/03/02 03:27:34;;;;;;;98.60;31.02;;;;;;;0.30;100.00;103146.28;5035783;28;20059;-62
2021/03/02 03:30:02;;;;;;;84.57;29.38;;;;;;;0.28;100.00;103141.00;5037658;28;20053;-62
2021/03/02 03:32:29;;;;;;;93.65;31.17;;;;;;;0.27;100.00;103141.00;5037053;28;20409;-62
2021/03/02 03:34:59;;;;;;;94.82;30.80;;;;;;;0.17;100.00;103146.34;5036488;28;20041;-62
2021/03/02 03:37:26;;;;;;;100.65;32.45;;;;;;;0.15;100.00;103137.56;5034157;28;20405;-61
2021/03/02 03:39:52;;;;;;;99.22;30.77;;;;;;;0.18;100.00;103147.25;5036469;28;20061;-62
2021/03/02 03:42:17;;;;;;;98.22;31.95;;;;;;;0.19;100.00;103142.81;5036272;28;20057;-63
2021/03/02 03:44:43;;;;;;;98.82;31.42;;;;;;;0.10;100.00;103138.47;5037224;28;20053;-62
2021/03/02 03:47:09;;;;;;;92.85;29.67;;;;;;;0.05;100.00;103145.59;5035698;28;20122;-62
2021/03/02 03:49:35;;;;;;;97.45;30.20;;;;;;;0.08;100.00;103140.28;5038149;28;20055;-62
2021/03/02 03:52:07;;;;;;;85.80;28.33;;;;;;;0.09;100.00;103142.00;5036860;28;20452;-62
2021/03/02 03:54:33;;;;;;;82.05;28.05;;;;;;;0.02;100.00;103138.53;5037907;28;20065;-62
2021/03/02 03:57:00;;;;;;;85.20;30.95;;;;;;;0.06;100.00;103132.34;5034516;28;20494;-62
2021/03/02 03:59:28;;;;;;;84.63;29.15;;;;;;;0.06;100.00;103136.75;5038024;28;20060;-62
2021/03/02 04:01:55;;;;;;;89.40;28.27;;;;;;;-0.04;100.00;103128.00;5034296;28;20045;-62
2021/03/02 04:04:22;;;;;;;85.55;29.73;;;;;;;-0.08;100.00;103139.50;5038165;28;20049;-62
2021/03/02 04:06:49;;;;;;;95.90;29.13;;;;;;;-0.07;100.00;103134.19;5036085;28;20041;-62
2021/03/02 04:09:17;;;;;;;86.80;29.65;;;;;;;0.06;100.00;103131.44;5035002;28;20493;-62
2021/03/02 04:11:43;;;;;;;80.10;29.33;;;;;;;-0.02;100.00;103142.09;5034637;28;20390;-63
2021/03/02 04:14:09;;;;;;;85.40;28.77;;;;;;;-0.09;100.00;103137.72;5036120;28;20107;-62
2021/03/02 04:16:36;;;;;;;95.38;30.83;;;;;;;-0.06;100.00;103138.59;5034875;28;20065;-61
2021/03/02 04:19:02;;;;;;;81.15;28.85;;;;;;;-0.10;100.00;103128.94;5034094;28;20076;-62
2021/03/02 04:21:29;;;;;;;73.00;26.15;;;;;;;-0.10;100.00;103136.88;5035997;28;20053;-62
2021/03/02 04:23:54;;;;;;;83.18;27.35;;;;;;;-0.18;100.00;103128.09;5035388;28;20053;-61
2021/03/02 04:26:21;;;;;;;83.75;29.20;;;;;;;-0.24;100.00;103129.00;5033242;28;20144;-61
2021/03/02 04:28:48;;;;;;;79.70;27.10;;;;;;;-0.17;100.00;103129.00;5035365;28;20048;-62
2021/03/02 04:31:15;;;;;;;82.22;27.98;;;;;;;-0.26;100.00;103122.00;5035424;28;20083;-62
2021/03/02 04:33:41;;;;;;;78.53;27.23;;;;;;;-0.31;100.00;103121.13;5036565;28;20057;-61
2021/03/02 04:36:08;;;;;;;74.55;28.27;;;;;;;-0.36;100.00;103129.09;5034127;28;20398;-61
2021/03/02 04:38:34;;;;;;;75.03;27.33;;;;;;;-0.39;100.00;103122.03;5037915;28;20064;-62
2021/03/02 04:41:00;;;;;;;75.15;26.55;;;;;;;-0.44;100.00;103118.56;5038389;28;20045;-62
2021/03/02 04:43:27;;;;;;;80.38;27.10;;;;;;;-0.39;100.00;103119.41;5035424;28;20112;-62
2021/03/02 04:45:53;;;;;;;76.40;27.60;;;;;;;-0.39;100.00;103122.03;5037705;28;20080;-62
2021/03/02 04:48:19;;;;;;;84.82;29.08;;;;;;;-0.41;100.00;103121.19;5037118;28;20054;-62
2021/03/02 04:50:45;;;;;;;79.30;28.23;;;;;;;-0.39;100.00;103119.41;5038035;28;20064;-62
2021/03/02 04:53:11;;;;;;;66.40;26.45;;;;;;;-0.42;100.00;103123.84;5037458;28;20052;-62
2021/03/02 04:55:37;;;;;;;67.75;25.30;;;;;;;-0.52;100.00;103125.66;5038042;28;20057;-62
2021/03/02 04:58:03;;;;;;;81.53;26.90;;;;;;;-0.52;100.00;103116.84;5035133;28;20572;-62
2021/03/02 05:00:30;;;;;;;76.70;27.23;;;;;;;-0.56;100.00;103118.63;5037916;28;20053;-63
2021/03/02 05:02:56;;;;;;;79.40;26.50;;;;;;;-0.51;100.00;103119.50;5037630;28;20053;-62
2021/03/02 05:05:22;;;;;;;80.43;26.20;;;;;;;-0.57;100.00;103119.53;5035389;28;20059;-61
2021/03/02 05:07:48;;;;;;;84.15;29.83;;;;;;;-0.54;100.00;103124.81;5035698;28;20124;-62
2021/03/02 05:10:14;;;;;;;69.85;25.95;;;;;;;-0.59;100.00;103122.19;5036566;28;20049;-61
2021/03/02 05:12:40;;;;;;;84.75;29.20;;;;;;;-0.54;100.00;103119.50;5037679;28;20045;-62
2021/03/02 05:15:07;;;;;;;82.85;27.40;;;;;;;-0.56;100.00;103121.25;5035441;28;20076;-62
2021/03/02 05:17:34;;;;;;;81.72;28.30;;;;;;;-0.61;100.00;103118.66;5037608;28;20045;-62
2021/03/02 05:20:00;;;;;;;81.22;29.25;;;;;;;-0.53;100.00;103113.31;5035006;28;20041;-61
2021/03/02 05:22:26;;;;;;;79.80;28.67;;;;;;;-0.55;100.00;103117.75;5036684;28;19925;-62
2021/03/02 05:24:52;;;;;;;77.38;25.40;;;;;;;-0.52;100.00;103117.72;5035659;28;20069;-61
2021/03/02 05:27:18;;;;;;;78.93;27.00;;;;;;;-0.46;100.00;103114.16;5034329;28;20075;-61
2021/03/02 05:29:44;;;;;;;77.68;27.48;;;;;;;-0.54;100.00;103111.56;5037464;28;20321;-62
2021/03/02 05:32:10;;;;;;;88.63;29.90;;;;;;;-0.63;100.00;103119.53;5035858;28;20057;-61
2021/03/02 05:34:37;;;;;;;81.70;28.77;;;;;;;-0.64;100.00;103117.81;5036158;28;20049;-62
2021/03/02 05:37:03;;;;;;;90.70;28.35;;;;;;;-0.61;100.00;103113.34;5034559;28;20110;-61
2021/03/02 05:39:29;;;;;;;73.82;28.48;;;;;;;-0.66;100.00;103117.81;5037338;28;20045;-61
2021/03/02 05:41:55;;;;;;;91.45;30.85;;;;;;;-0.69;100.00;103117.84;5035643;28;20098;-62
2021/03/02 05:44:21;;;;;;;80.85;28.40;;;;;;;-0.61;100.00;103121.28;5037269;28;20053;-61
2021/03/02 05:46:48;;;;;;;93.93;29.88;;;;;;;-0.58;100.00;103125.69;5036522;28;20045;-62
2021/03/02 05:49:14;;;;;;;95.07;31.05;;;;;;;-0.69;100.00;103122.22;5035029;28;20057;-62
2021/03/02 05:51:42;;;;;;;89.75;28.52;;;;;;;-0.62;100.00;103126.59;5037037;28;20049;-62
2021/03/02 05:54:10;;;;;;;97.68;31.45;;;;;;;-0.69;100.00;103119.56;5035315;28;20048;-63
2021/03/02 05:56:37;;;;;;;86.20;29.48;;;;;;;-0.69;100.00;103112.53;5036626;28;20465;-62
2021/03/02 05:59:03;;;;;;;84.53;30.27;;;;;;;-0.72;100.00;103115.22;5035341;28;20056;-62
2021/03/02 06:01:29;;;;;;;85.38;27.98;;;;;;;-0.69;100.00;103120.47;5036475;28;20517;-63
2021/03/02 06:03:55;;;;;;;90.10;28.88;;;;;;;-0.73;100.00;103129.31;5037627;28;20135;-62
2021/03/02 06:06:21;;;;;;;83.30;28.17;;;;;;;-0.78;100.00;103121.41;5034860;28;20061;-61
2021/03/02 06:08:48;;;;;;;84.20;28.63;;;;;;;-0.82;100.00;103119.66;5035616;28;20049;-61
2021/03/02 06:11:28;;;;;;;83.80;28.08;;;;;;;-0.81;100.00;103134.63;5035289;28;20057;-62
2021/03/02 06:13:55;;;;;;;87.68;30.38;;;;;;;-0.85;100.00;103119.66;5036819;28;20149;-62
2021/03/02 06:16:21;;;;;;;83.28;27.33;;;;;;;-0.86;100.00;103120.53;5031970;28;20053;-62
2021/03/02 06:18:49;;;;;;;80.63;27.77;;;;;;;-0.81;100.00;103121.41;5026137;28;20779;-62
2021/03/02 06:21:15;;;;;;;84.47;29.02;;;;;;;-0.89;100.00;103123.19;5027312;28;20050;-61
2021/03/02 06:23:52;;;;;;;74.65;26.27;;;;;;;-0.89;100.00;103120.56;5031182;28;20136;-62
2021/03/02 06:26:25;;;;;;;70.10;25.88;;;;;;;-0.87;100.00;103118.78;5031864;28;20213;-62
2021/03/02 06:28:53;;;;;;;85.80;27.17;;;;;;;-0.86;100.00;103120.53;5030767;28;20052;-62
2021/03/02 06:31:37;;;;;;;80.82;27.95;;;;;;;-0.87;100.00;103121.41;5037022;28;20117;-62
2021/03/02 06:34:08;;;;;;;74.45;26.83;;;;;;;-0.93;100.00;103110.88;5037038;28;20052;-62
2021/03/02 06:36:35;;;;;;;84.53;29.15;;;;;;;-0.85;100.00;103119.66;5030919;28;20059;-61
2021/03/02 06:39:22;;;;;;;89.13;27.92;;;;;;;-0.80;100.00;103123.16;5029535;28;20052;-63
2021/03/02 06:41:48;;;;;;;79.70;28.15;;;;;;;-0.82;100.00;103130.22;5030901;28;20046;-62
2021/03/02 06:44:14;;;;;;;91.68;30.42;;;;;;;-0.75;100.00;103124.03;5036544;28;20053;-62
2021/03/02 06:46:41;;;;;;;81.28;28.67;;;;;;;-0.73;100.00;103122.25;5037321;28;20055;-61
2021/03/02 06:49:07;;;;;;;83.45;29.88;;;;;;;-0.71;100.00;103122.22;5037798;28;20049;-63
2021/03/02 06:51:35;;;;;;;87.10;29.15;;;;;;;-0.64;100.00;103129.25;5035185;28;20057;-63
2021/03/02 06:54:03;;;;;;;86.18;28.73;;;;;;;-0.62;100.00;103121.31;5033565;28;20060;-63
2021/03/02 06:56:29;;;;;;;84.50;29.48;;;;;;;-0.69;100.00;103130.16;5035231;28;20490;-62
2021/03/02 06:59:15;;;;;;;79.97;29.02;;;;;;;-0.72;100.00;103131.06;5034044;28;20049;-63
2021/03/02 07:01:44;;;;;;;84.47;29.58;;;;;;;-0.69;100.00;103131.06;5035597;28;20053;-62
2021/03/02 07:04:12;;;;;;;83.80;29.77;;;;;;;-0.56;100.00;103132.75;5036048;28;20065;-62
2021/03/02 07:06:39;;;;;;;81.88;28.45;;;;;;;-0.49;100.00;103128.28;5034677;28;20110;-62
2021/03/02 07:09:06;;;;;;;76.28;28.77;;;;;;;-0.44;100.00;103137.09;5035584;28;20060;-62
2021/03/02 07:11:34;;;;;;;87.45;29.25;;;;;;;-0.37;100.00;103138.81;5034647;28;20397;-63
2021/03/02 07:14:02;;;;;;;81.03;28.17;;;;;;;-0.32;100.00;103135.22;5036770;28;20390;-62
2021/03/02 07:16:28;;;;;;;84.55;29.90;;;;;;;-0.30;100.00;103138.78;5038454;28;20049;-63
2021/03/02 07:18:56;;;;;;;87.70;31.02;;;;;;;-0.20;100.00;103143.13;5038821;28;20048;-62
2021/03/02 07:21:23;;;;;;;89.43;30.65;;;;;;;-0.12;100.00;103138.63;5037630;28;20052;-62
2021/03/02 07:23:53;;;;;;;76.07;27.92;;;;;;;-0.10;100.00;103146.59;5037344;28;20136;-62
2021/03/02 07:26:20;;;;;;;80.35;30.25;;;;;;;-0.03;100.00;103141.22;5034147;28;20126;-63
2021/03/02 07:28:47;;;;;;;80.97;28.98;;;;;;;0.05;100.00;103148.25;5039518;28;20061;-63
2021/03/02 07:31:15;;;;;;;84.53;32.13;;;;;;;0.11;100.00;103150.84;5038368;28;20052;-63
2021/03/02 07:33:42;;;;;;;88.10;30.35;;;;;;;0.21;100.00;103152.53;5037965;28;20054;-63
2021/03/02 07:36:08;;;;;;;91.47;31.38;;;;;;;0.29;100.00;103150.66;5038841;28;20053;-62
2021/03/02 07:38:34;;;;;;;84.25;32.08;;;;;;;0.29;100.00;103140.06;5037996;28;20238;-62
2021/03/02 07:41:00;;;;;;;92.47;30.80;;;;;;;0.39;100.00;103140.00;5037687;28;20077;-62
2021/03/02 07:43:28;;;;;;;85.20;29.38;;;;;;;0.46;100.00;103142.59;5033553;28;20063;-62
2021/03/02 07:45:56;;;;;;;78.23;29.47;;;;;;;0.50;100.00;103132.81;5028531;28;20107;-63
2021/03/02 07:48:26;;;;;;;80.25;29.75;;;;;;;0.63;100.00;103142.44;5036573;28;20509;-63
2021/03/02 07:51:28;;;;;;;73.60;29.90;;;;;;;0.78;100.00;103138.75;5036780;28;20072;-62
2021/03/02 07:54:15;;;;;;;75.80;30.20;;;;;;;0.87;100.00;103151.03;5035990;28;20049;-63
2021/03/02 07:56:41;;;;;;;77.63;31.17;;;;;;;0.92;100.00;103149.19;5039703;28;20049;-62
2021/03/02 07:59:18;;;;;;;82.38;30.38;;;;;;;1.02;100.00;103148.19;5038589;28;20180;-64
2021/03/02 08:02:06;;;;;;;82.78;30.83;;;;;;;1.17;100.00;103152.41;5037115;28;20490;-62
2021/03/02 08:04:32;;;;;;;72.80;28.90;;;;;;;1.20;100.00;103159.47;5036674;28;22224;-63
2021/03/02 08:07:23;;;;;;;73.22;30.02;;;;;;;1.33;100.00;103163.72;5033561;28;20045;-63
2021/03/02 08:09:49;;;;;;;74.40;29.80;;;;;;;1.46;100.00;103161.78;5031439;28;20053;-63
2021/03/02 08:15:39;;;;;;;71.97;27.30;;;;;;;1.82;100.00;103155.97;5045184;22;20490;-63
2021/03/02 08:21:18;;;;;;;66.40;28.55;;;;;;;2.06;100.00;103155.63;4970476;28;20053;-63
2021/03/02 08:23:46;;;;;;;69.22;28.60;;;;;;;2.11;100.00;103155.53;4984443;28;20073;-63
2021/03/02 08:26:23;;;;;;;64.05;28.02;;;;;;;2.28;100.00;103161.47;4983948;28;20521;-65
2021/03/02 08:29:09;;;;;;;60.00;25.98;;;;;;;2.48;100.00;103167.34;4984327;28;20057;-63
2021/03/02 08:31:37;;;;;;;62.30;26.35;;;;;;;2.56;100.00;103162.75;4982883;28;20065;-63
2021/03/02 08:34:06;;;;;;;61.78;26.80;;;;;;;2.78;100.00;103157.91;4983390;28;20133;-64
2021/03/02 08:36:34;;;;;;;55.90;26.15;;;;;;;2.92;100.00;103155.00;4985039;28;20043;-63
2021/03/02 08:39:00;;;;;;;58.42;24.92;;;;;;;3.07;100.00;103152.03;4985098;28;20050;-63
2021/03/02 08:41:30;;;;;;;52.15;24.83;;;;;;;3.29;100.00;103146.28;4984779;28;20502;-63
2021/03/02 08:43:56;;;;;;;52.13;23.33;;;;;;;3.40;100.00;103141.59;4984518;28;20058;-63
2021/03/02 08:46:26;;;;;;;47.42;23.25;;;;;;;3.36;100.00;103154.97;4975620;28;20054;-63
2021/03/02 08:48:53;;;;;;;49.03;23.25;;;;;;;3.44;100.00;103153.03;4984750;28;20050;-63
2021/03/02 08:51:21;;;;;;;47.70;23.05;;;;;;;3.63;100.00;103153.50;4975094;28;20466;-64
2021/03/02 08:53:49;;;;;;;43.45;22.17;;;;;;;3.75;100.00;103155.03;4985222;28;20054;-63
2021/03/02 08:56:20;;;;;;;43.85;22.73;;;;;;;3.96;100.00;103149.19;4983862;28;20139;-63
2021/03/02 08:58:48;;;;;;;44.33;22.08;;;;;;;4.11;100.00;103152.38;4984541;28;20057;-63
2021/03/02 09:01:15;;;;;;;42.40;21.88;;;;;;;4.27;100.00;103158.22;4984076;28;20111;-64
2021/03/02 09:03:44;;;;;;;40.13;21.05;;;;;;;4.37;100.00;103162.41;4985865;28;20507;-63
2021/03/02 09:06:16;;;;;;;43.92;21.42;;;;;;;4.50;100.00;103155.84;4983686;28;20074;-63
2021/03/02 09:08:50;;;;;;;41.55;22.23;;;;;;;4.60;100.00;103156.47;4983772;28;20128;-63
2021/03/02 09:11:19;;;;;;;38.33;19.38;;;;;;;4.78;100.00;103147.09;4984095;28;20058;-64
2021/03/02 09:13:45;;;;;;;40.20;20.55;;;;;;;4.87;100.00;103144.19;4982482;28;20081;-63
2021/03/02 09:16:40;;;;;;;37.85;19.10;;;;;;;4.98;100.00;103145.69;4983431;28;20054;-64
2021/03/02 09:19:31;;;;;;;38.42;20.40;;;;;;;5.23;100.00;103140.50;4983523;28;20476;-65
2021/03/02 09:22:00;;;;;;;36.22;19.25;;;;;;;5.35;100.00;103144.63;4959597;28;20518;-64
2021/03/02 09:24:29;;;;;;;31.75;18.17;;;;;;;5.46;100.00;103137.13;4982621;28;20104;-64
2021/03/02 09:26:58;;;;;;;31.23;17.10;;;;;;;5.61;100.00;103141.16;4982111;28;20061;-63
2021/03/02 09:29:27;;;;;;;29.90;16.08;;;;;;;5.76;100.00;103132.66;4984114;28;20487;-64
2021/03/02 09:31:56;;;;;;;29.20;16.33;;;;;;;5.92;100.00;103125.00;4984206;28;20048;-64
2021/03/02 09:34:29;;;;;;;30.00;17.48;;;;;;;6.07;100.00;103128.16;4981028;28;20054;-65
2021/03/02 09:36:56;;;;;;;28.45;15.88;;;;;;;6.24;100.00;103131.13;4983922;28;20046;-65
2021/03/02 09:39:24;;;;;;;31.25;16.77;;;;;;;6.47;100.00;103134.81;4983887;28;20057;-64
2021/03/02 09:41:52;;;;;;;28.20;16.20;;;;;;;6.70;100.00;103133.13;4983779;28;20050;-64
2021/03/02 09:44:24;;;;;;;28.85;16.55;;;;;;;6.90;100.00;103125.25;4982693;28;20109;-64
2021/03/02 09:46:52;;;;;;;27.50;15.55;;;;;;;7.09;100.00;103121.88;4983578;28;20050;-64
2021/03/02 09:49:38;;;;;;;26.30;15.15;;;;;;;7.14;100.00;103122.56;4974428;28;20112;-63
2021/03/02 09:52:05;;;;;;;27.08;15.35;;;;;;;7.13;100.00;103126.19;4982851;28;20278;-64
2021/03/02 09:54:31;;;;;;;26.40;14.82;;;;;;;7.24;100.00;103129.31;4981216;28;20049;-64
2021/03/02 09:57:01;;;;;;;26.33;15.05;;;;;;;7.43;100.00;103128.63;4970089;28;20046;-64
2021/03/02 09:59:27;;;;;;;27.23;16.08;;;;;;;7.54;99.29;103126.41;4980264;28;20493;-63
2021/03/02 10:01:54;;;;;;;24.20;14.13;;;;;;;7.69;98.42;103125.78;4978295;28;20054;-62
2021/03/02 10:04:21;;;;;;;25.48;14.85;;;;;;;7.78;99.26;103123.69;4977590;28;20105;-64
2021/03/02 10:06:47;;;;;;;24.15;14.45;;;;;;;7.78;98.17;103115.66;4977949;28;20050;-63
2021/03/02 10:09:22;;;;;;;22.42;13.30;;;;;;;7.90;96.13;103112.44;4979436;28;20054;-61
2021/03/02 10:12:06;;;;;;;24.98;14.05;;;;;;;8.14;95.50;103115.03;4987509;28;20046;-62
2021/03/02 10:14:37;;;;;;;20.33;12.75;;;;;;;8.16;94.37;103108.69;4987141;28;20081;-63
2021/03/02 10:17:03;;;;;;;22.00;12.27;;;;;;;8.32;94.07;103110.69;4982506;28;20058;-63
2021/03/02 10:19:30;;;;;;;20.35;12.27;;;;;;;8.72;92.04;103100.94;4982661;28;20604;-62
2021/03/02 10:21:59;;;;;;;24.10;13.50;;;;;;;8.63;91.31;103107.59;4979815;28;20042;-62
2021/03/02 10:24:26;;;;;;;24.10;13.70;;;;;;;8.62;92.72;103105.84;4981002;28;20580;-63
2021/03/02 10:26:54;;;;;;;21.83;12.95;;;;;;;8.89;90.41;103105.53;4981598;28;20462;-63
2021/03/02 10:29:21;;;;;;;20.75;13.20;;;;;;;8.97;89.51;103106.06;4979957;28;20066;-63
2021/03/02 10:31:49;;;;;;;19.10;11.52;;;;;;;9.27;88.34;103109.13;4981431;28;20134;-62
2021/03/02 10:34:15;;;;;;;19.08;12.18;;;;;;;9.31;87.06;103104.50;4980715;28;20055;-62
2021/03/02 10:36:42;;;;;;;19.52;12.07;;;;;;;9.33;87.46;103107.97;4979661;28;20125;-63
2021/03/02 10:39:10;;;;;;;25.40;15.45;;;;;;;9.56;91.52;103104.19;4981213;28;20050;-62
2021/03/02 10:41:37;;;;;;;29.45;17.17;;;;;;;9.70;93.13;103111.59;4980722;28;20050;-62
2021/03/02 10:44:03;;;;;;;35.30;18.00;;;;;;;9.64;94.37;103111.88;4982792;28;20050;-63
2021/03/02 10:46:30;;;;;;;34.85;18.20;;;;;;;9.58;94.38;103107.66;4981896;28;20144;-63
2021/03/02 10:48:58;;;;;;;29.67;17.90;;;;;;;9.59;94.27;103097.81;4983094;28;20411;-66
2021/03/02 10:51:25;;;;;;;28.75;17.23;;;;;;;9.77;93.37;103102.25;4981817;28;20062;-63
2021/03/02 10:53:51;;;;;;;26.42;15.35;;;;;;;9.89;91.49;103099.94;4982356;28;20046;-63
2021/03/02 10:56:18;;;;;;;23.40;14.07;;;;;;;10.05;88.59;103095.50;4970942;28;20069;-63
2021/03/02 10:58:45;;;;;;;26.90;14.68;;;;;;;10.15;89.88;103094.09;4971447;28;20061;-63
2021/03/02 11:01:11;;;;;;;22.10;13.88;;;;;;;10.50;87.00;103088.75;4979513;28;20054;-64
2021/03/02 11:03:38;;;;;;;29.83;17.13;;;;;;;10.61;87.23;103081.91;4981528;28;20519;-64
2021/03/02 11:06:05;;;;;;;30.67;18.13;;;;;;;10.56;88.55;103089.38;4981771;28;20073;-63
2021/03/02 11:08:31;;;;;;;33.25;19.13;;;;;;;10.49;90.46;103088.81;4982071;28;20050;-63
2021/03/02 11:10:57;;;;;;;33.33;18.95;;;;;;;10.37;90.05;103090.34;4982840;28;20058;-64
2021/03/02 11:13:23;;;;;;;28.73;17.17;;;;;;;10.33;90.85;103086.03;4982458;28;20042;-64
2021/03/02 11:15:49;;;;;;;36.70;18.48;;;;;;;10.33;91.22;103091.41;4981224;28;20042;-63
2021/03/02 11:18:15;;;;;;;28.70;17.20;;;;;;;10.39;91.83;103080.34;4984064;28;20089;-64
2021/03/02 11:20:44;;;;;;;38.50;16.80;;;;;;;10.59;92.27;103073.94;4985318;28;20617;-63
2021/03/02 11:23:12;;;;;;;32.97;17.50;;;;;;;10.79;89.24;103070.16;4984588;28;20050;-64
2021/03/02 11:25:38;;;;;;;31.15;16.95;;;;;;;10.96;87.85;103076.47;4986333;28;20367;-65